Terminal Aerodrome Forecast
Issued by NWS Topeka, KS

Home | Current Version | Previous Version | Text Only | Print | Product List | Glossary Off
Versions: 1 2 3 4 5 6 7 8 9 10 11 12 13 14 15 16 17

000
FTUS43 KTOP 251628 AAA
TAFTOP
TAF AMD
KTOP 251628Z 2516/2612 13010KT P6SM SCT060 BKN250
      TEMPO 2517/2518 34015G25KT
     FM260100 16007KT P6SM SCT050 BKN120
     FM260500 14006KT P6SM VCTS SCT050 BKN080CB=

USA.gov is the U.S. government's official web portal to all federal, state and local government web resources and services.